sensor_id;sensor_type;location;lat;lon;timestamp;P1;durP1;ratioP1;P2;durP2;ratioP2
34035;SDS011;63481;52.588;22.472;2023-03-14T00:00:26;13.70;;;6.70;;
34035;SDS011;63481;52.588;22.472;2023-03-14T00:01:25;12.40;;;6.50;;
34035;SDS011;63481;52.588;22.472;2023-03-14T00:02:18;12.10;;;6.30;;
34035;SDS011;63481;52.588;22.472;2023-03-14T00:03:10;11.10;;;6.30;;
34035;SDS011;63481;52.588;22.472;2023-03-14T00:04:04;12.10;;;6.40;;
34035;SDS011;63481;52.588;22.472;2023-03-14T00:04:57;14.10;;;6.40;;
34035;SDS011;63481;52.588;22.472;2023-03-14T00:05:50;10.90;;;5.90;;
34035;SDS011;63481;52.588;22.472;2023-03-14T00:06:43;13.40;;;6.20;;
34035;SDS011;63481;52.588;22.472;2023-03-14T00:07:36;12.00;;;6.60;;
34035;SDS011;63481;52.588;22.472;2023-03-14T00:08:30;14.20;;;6.70;;
34035;SDS011;63481;52.588;22.472;2023-03-14T00:09:23;12.30;;;6.00;;
34035;SDS011;63481;52.588;22.472;2023-03-14T00:10:16;12.70;;;6.10;;
34035;SDS011;63481;52.588;22.472;2023-03-14T00:11:19;12.90;;;6.30;;
34035;SDS011;63481;52.588;22.472;2023-03-14T00:12:13;11.80;;;5.80;;
34035;SDS011;63481;52.588;22.472;2023-03-14T00:13:06;12.20;;;6.50;;
34035;SDS011;63481;52.588;22.472;2023-03-14T00:13:59;10.20;;;5.60;;
34035;SDS011;63481;52.588;22.472;2023-03-14T00:14:52;13.00;;;6.70;;
34035;SDS011;63481;52.588;22.472;2023-03-14T00:15:45;11.10;;;6.00;;
34035;SDS011;63481;52.588;22.472;2023-03-14T00:16:37;13.60;;;6.00;;
34035;SDS011;63481;52.588;22.472;2023-03-14T00:17:30;11.90;;;5.90;;
34035;SDS011;63481;52.588;22.472;2023-03-14T00:18:23;14.20;;;6.30;;
34035;SDS011;63481;52.588;22.472;2023-03-14T00:19:16;14.00;;;6.40;;
34035;SDS011;63481;52.588;22.472;2023-03-14T00:20:09;13.20;;;6.60;;
34035;SDS011;63481;52.588;22.472;2023-03-14T00:21:03;16.90;;;6.30;;
34035;SDS011;63481;52.588;22.472;2023-03-14T00:21:57;12.90;;;6.70;;
34035;SDS011;63481;52.588;22.472;2023-03-14T00:22:50;13.10;;;6.50;;
34035;SDS011;63481;52.588;22.472;2023-03-14T00:23:43;12.90;;;6.30;;
34035;SDS011;63481;52.588;22.472;2023-03-14T00:24:36;12.30;;;6.90;;
34035;SDS011;63481;52.588;22.472;2023-03-14T00:25:29;14.80;;;6.60;;
34035;SDS011;63481;52.588;22.472;2023-03-14T00:26:21;13.10;;;6.40;;
34035;SDS011;63481;52.588;22.472;2023-03-14T00:27:14;13.90;;;6.10;;
34035;SDS011;63481;52.588;22.472;2023-03-14T00:28:07;13.00;;;6.50;;
34035;SDS011;63481;52.588;22.472;2023-03-14T00:28:59;11.10;;;6.00;;
34035;SDS011;63481;52.588;22.472;2023-03-14T00:29:52;12.00;;;6.00;;
34035;SDS011;63481;52.588;22.472;2023-03-14T00:30:45;12.30;;;6.80;;
34035;SDS011;63481;52.588;22.472;2023-03-14T00:31:38;13.90;;;6.50;;
34035;SDS011;63481;52.588;22.472;2023-03-14T00:32:35;13.60;;;6.40;;
34035;SDS011;63481;52.588;22.472;2023-03-14T00:33:28;12.70;;;6.20;;
34035;SDS011;63481;52.588;22.472;2023-03-14T00:34:22;13.50;;;6.80;;
34035;SDS011;63481;52.588;22.472;2023-03-14T00:35:15;10.80;;;6.30;;
34035;SDS011;63481;52.588;22.472;2023-03-14T00:36:12;13.90;;;6.40;;
34035;SDS011;63481;52.588;22.472;2023-03-14T00:37:09;12.70;;;6.30;;
34035;SDS011;63481;52.588;22.472;2023-03-14T00:38:04;14.80;;;6.10;;
34035;SDS011;63481;52.588;22.472;2023-03-14T00:38:57;10.80;;;6.10;;
34035;SDS011;63481;52.588;22.472;2023-03-14T00:39:51;12.30;;;6.20;;
34035;SDS011;63481;52.588;22.472;2023-03-14T00:40:44;12.90;;;6.80;;
34035;SDS011;63481;52.588;22.472;2023-03-14T00:41:36;12.70;;;5.90;;
34035;SDS011;63481;52.588;22.472;2023-03-14T00:42:29;14.10;;;5.90;;
34035;SDS011;63481;52.588;22.472;2023-03-14T00:43:24;10.70;;;6.40;;
34035;SDS011;63481;52.588;22.472;2023-03-14T00:44:17;12.30;;;6.30;;
34035;SDS011;63481;52.588;22.472;2023-03-14T00:45:09;13.30;;;6.50;;
34035;SDS011;63481;52.588;22.472;2023-03-14T00:46:02;12.20;;;6.60;;
34035;SDS011;63481;52.588;22.472;2023-03-14T00:46:56;14.10;;;6.10;;
34035;SDS011;63481;52.588;22.472;2023-03-14T00:47:49;10.90;;;5.80;;
34035;SDS011;63481;52.588;22.472;2023-03-14T00:48:41;13.20;;;5.80;;
34035;SDS011;63481;52.588;22.472;2023-03-14T00:49:36;15.20;;;6.60;;
34035;SDS011;63481;52.588;22.472;2023-03-14T00:50:28;12.00;;;6.30;;
34035;SDS011;63481;52.588;22.472;2023-03-14T00:51:21;12.60;;;6.90;;
34035;SDS011;63481;52.588;22.472;2023-03-14T00:52:14;14.90;;;6.10;;
34035;SDS011;63481;52.588;22.472;2023-03-14T00:53:06;12.40;;;6.20;;
34035;SDS011;63481;52.588;22.472;2023-03-14T00:53:59;16.10;;;5.90;;
34035;SDS011;63481;52.588;22.472;2023-03-14T00:54:53;12.60;;;6.30;;
34035;SDS011;63481;52.588;22.472;2023-03-14T00:55:45;14.70;;;6.20;;
34035;SDS011;63481;52.588;22.472;2023-03-14T00:56:39;12.40;;;6.10;;
34035;SDS011;63481;52.588;22.472;2023-03-14T00:57:31;11.60;;;5.40;;
34035;SDS011;63481;52.588;22.472;2023-03-14T00:58:24;12.40;;;5.40;;
34035;SDS011;63481;52.588;22.472;2023-03-14T00:59:17;11.30;;;5.50;;
34035;SDS011;63481;52.588;22.472;2023-03-14T01:00:10;13.20;;;6.50;;
34035;SDS011;63481;52.588;22.472;2023-03-14T01:01:17;13.90;;;6.00;;
34035;SDS011;63481;52.588;22.472;2023-03-14T01:02:11;12.80;;;6.50;;
34035;SDS011;63481;52.588;22.472;2023-03-14T01:03:04;17.70;;;6.30;;
34035;SDS011;63481;52.588;22.472;2023-03-14T01:03:57;13.40;;;5.80;;
34035;SDS011;63481;52.588;22.472;2023-03-14T01:04:50;13.40;;;6.10;;
34035;SDS011;63481;52.588;22.472;2023-03-14T01:05:43;12.40;;;6.50;;
34035;SDS011;63481;52.588;22.472;2023-03-14T01:06:36;11.40;;;6.00;;
34035;SDS011;63481;52.588;22.472;2023-03-14T01:07:29;11.70;;;5.70;;
34035;SDS011;63481;52.588;22.472;2023-03-14T01:08:22;12.00;;;5.80;;
34035;SDS011;63481;52.588;22.472;2023-03-14T01:09:15;15.30;;;6.40;;
34035;SDS011;63481;52.588;22.472;2023-03-14T01:10:10;15.70;;;6.20;;
34035;SDS011;63481;52.588;22.472;2023-03-14T01:11:09;14.90;;;6.40;;
34035;SDS011;63481;52.588;22.472;2023-03-14T01:12:04;11.50;;;5.60;;
34035;SDS011;63481;52.588;22.472;2023-03-14T01:12:57;16.30;;;6.40;;
34035;SDS011;63481;52.588;22.472;2023-03-14T01:13:49;12.00;;;6.00;;
34035;SDS011;63481;52.588;22.472;2023-03-14T01:14:42;13.90;;;6.30;;
34035;SDS011;63481;52.588;22.472;2023-03-14T01:15:36;12.90;;;6.20;;
34035;SDS011;63481;52.588;22.472;2023-03-14T01:16:32;11.70;;;5.80;;
34035;SDS011;63481;52.588;22.472;2023-03-14T01:17:29;14.90;;;6.00;;
34035;SDS011;63481;52.588;22.472;2023-03-14T01:18:23;12.90;;;6.00;;
34035;SDS011;63481;52.588;22.472;2023-03-14T01:19:15;11.80;;;6.20;;
34035;SDS011;63481;52.588;22.472;2023-03-14T01:20:09;14.40;;;5.60;;
34035;SDS011;63481;52.588;22.472;2023-03-14T01:21:09;13.10;;;5.80;;
34035;SDS011;63481;52.588;22.472;2023-03-14T01:22:07;12.00;;;6.10;;
34035;SDS011;63481;52.588;22.472;2023-03-14T01:22:59;11.90;;;6.00;;
34035;SDS011;63481;52.588;22.472;2023-03-14T01:23:53;13.40;;;5.80;;
34035;SDS011;63481;52.588;22.472;2023-03-14T01:24:48;11.90;;;6.10;;
34035;SDS011;63481;52.588;22.472;2023-03-14T01:25:41;14.80;;;5.60;;
34035;SDS011;63481;52.588;22.472;2023-03-14T01:26:35;14.50;;;6.50;;
34035;SDS011;63481;52.588;22.472;2023-03-14T01:27:28;12.20;;;6.20;;
34035;SDS011;63481;52.588;22.472;2023-03-14T01:28:20;14.30;;;6.40;;
34035;SDS011;63481;52.588;22.472;2023-03-14T01:29:13;12.60;;;5.90;;
34035;SDS011;63481;52.588;22.472;2023-03-14T01:30:06;12.60;;;6.80;;
34035;SDS011;63481;52.588;22.472;2023-03-14T01:31:03;10.70;;;5.80;;
34035;SDS011;63481;52.588;22.472;2023-03-14T01:31:57;11.70;;;5.80;;
34035;SDS011;63481;52.588;22.472;2023-03-14T01:32:49;14.60;;;6.20;;
34035;SDS011;63481;52.588;22.472;2023-03-14T01:33:42;13.20;;;6.10;;
34035;SDS011;63481;52.588;22.472;2023-03-14T01:34:36;12.60;;;6.10;;
34035;SDS011;63481;52.588;22.472;2023-03-14T01:35:29;12.50;;;6.00;;
34035;SDS011;63481;52.588;22.472;2023-03-14T01:36:23;13.70;;;6.30;;
34035;SDS011;63481;52.588;22.472;2023-03-14T01:37:16;11.80;;;5.80;;
34035;SDS011;63481;52.588;22.472;2023-03-14T01:38:10;16.50;;;6.00;;
34035;SDS011;63481;52.588;22.472;2023-03-14T01:39:04;11.90;;;6.10;;
34035;SDS011;63481;52.588;22.472;2023-03-14T01:39:59;13.50;;;5.90;;
34035;SDS011;63481;52.588;22.472;2023-03-14T01:40:52;13.10;;;6.30;;
34035;SDS011;63481;52.588;22.472;2023-03-14T01:41:45;11.30;;;5.20;;
34035;SDS011;63481;52.588;22.472;2023-03-14T01:42:43;13.40;;;5.70;;
34035;SDS011;63481;52.588;22.472;2023-03-14T01:43:38;12.50;;;5.90;;
34035;SDS011;63481;52.588;22.472;2023-03-14T01:46:59;10.40;;;5.20;;
34035;SDS011;63481;52.588;22.472;2023-03-14T01:47:52;15.10;;;6.20;;
34035;SDS011;63481;52.588;22.472;2023-03-14T01:49:56;13.30;;;5.90;;
34035;SDS011;63481;52.588;22.472;2023-03-14T01:50:59;13.60;;;5.50;;
34035;SDS011;63481;52.588;22.472;2023-03-14T01:51:56;11.70;;;5.10;;
34035;SDS011;63481;52.588;22.472;2023-03-14T01:52:54;10.20;;;5.20;;
34035;SDS011;63481;52.588;22.472;2023-03-14T01:53:48;10.70;;;5.60;;
34035;SDS011;63481;52.588;22.472;2023-03-14T01:54:44;11.40;;;5.00;;
34035;SDS011;63481;52.588;22.472;2023-03-14T01:55:40;13.40;;;5.60;;
34035;SDS011;63481;52.588;22.472;2023-03-14T01:56:33;10.40;;;5.30;;
34035;SDS011;63481;52.588;22.472;2023-03-14T01:57:32;11.90;;;5.00;;
34035;SDS011;63481;52.588;22.472;2023-03-14T01:58:29;11.10;;;5.20;;
34035;SDS011;63481;52.588;22.472;2023-03-14T01:59:26;10.80;;;4.90;;
34035;SDS011;63481;52.588;22.472;2023-03-14T02:00:23;11.50;;;5.20;;
34035;SDS011;63481;52.588;22.472;2023-03-14T02:01:16;11.10;;;5.60;;
34035;SDS011;63481;52.588;22.472;2023-03-14T02:02:12;12.20;;;5.90;;
34035;SDS011;63481;52.588;22.472;2023-03-14T02:03:06;11.60;;;5.30;;
34035;SDS011;63481;52.588;22.472;2023-03-14T02:04:04;14.90;;;6.00;;
34035;SDS011;63481;52.588;22.472;2023-03-14T02:04:59;12.80;;;5.80;;
34035;SDS011;63481;52.588;22.472;2023-03-14T02:05:59;11.30;;;5.50;;
34035;SDS011;63481;52.588;22.472;2023-03-14T02:07:22;13.40;;;5.90;;
34035;SDS011;63481;52.588;22.472;2023-03-14T02:08:46;13.00;;;5.30;;
34035;SDS011;63481;52.588;22.472;2023-03-14T02:09:44;12.20;;;5.30;;
34035;SDS011;63481;52.588;22.472;2023-03-14T02:10:45;12.80;;;6.30;;
34035;SDS011;63481;52.588;22.472;2023-03-14T02:11:41;11.80;;;5.70;;
34035;SDS011;63481;52.588;22.472;2023-03-14T02:13:02;10.90;;;5.00;;
34035;SDS011;63481;52.588;22.472;2023-03-14T02:14:35;10.90;;;5.10;;
34035;SDS011;63481;52.588;22.472;2023-03-14T02:15:58;13.20;;;5.60;;
34035;SDS011;63481;52.588;22.472;2023-03-14T02:17:10;12.00;;;5.80;;
34035;SDS011;63481;52.588;22.472;2023-03-14T02:18:25;12.40;;;5.70;;
34035;SDS011;63481;52.588;22.472;2023-03-14T02:22:11;11.90;;;5.60;;
34035;SDS011;63481;52.588;22.472;2023-03-14T02:25:48;12.80;;;5.00;;
34035;SDS011;63481;52.588;22.472;2023-03-14T02:27:55;14.70;;;5.50;;
34035;SDS011;63481;52.588;22.472;2023-03-14T02:28:49;11.10;;;5.50;;
34035;SDS011;63481;52.588;22.472;2023-03-14T02:29:49;12.10;;;5.70;;
34035;SDS011;63481;52.588;22.472;2023-03-14T02:30:46;12.70;;;5.40;;
34035;SDS011;63481;52.588;22.472;2023-03-14T02:31:39;13.10;;;6.00;;
34035;SDS011;63481;52.588;22.472;2023-03-14T02:32:33;12.00;;;5.90;;
34035;SDS011;63481;52.588;22.472;2023-03-14T02:33:28;11.80;;;5.60;;
34035;SDS011;63481;52.588;22.472;2023-03-14T02:34:20;15.90;;;6.40;;
34035;SDS011;63481;52.588;22.472;2023-03-14T02:35:18;12.30;;;6.30;;
34035;SDS011;63481;52.588;22.472;2023-03-14T02:36:14;13.50;;;6.30;;
34035;SDS011;63481;52.588;22.472;2023-03-14T02:37:08;11.70;;;5.60;;
34035;SDS011;63481;52.588;22.472;2023-03-14T02:38:04;16.00;;;6.60;;
34035;SDS011;63481;52.588;22.472;2023-03-14T02:39:10;13.30;;;6.50;;
34035;SDS011;63481;52.588;22.472;2023-03-14T02:40:09;10.90;;;5.80;;
34035;SDS011;63481;52.588;22.472;2023-03-14T02:41:03;13.40;;;6.70;;
34035;SDS011;63481;52.588;22.472;2023-03-14T02:41:57;12.80;;;6.80;;
34035;SDS011;63481;52.588;22.472;2023-03-14T02:42:50;12.30;;;6.50;;
34035;SDS011;63481;52.588;22.472;2023-03-14T02:43:44;17.20;;;6.60;;
34035;SDS011;63481;52.588;22.472;2023-03-14T02:44:47;13.70;;;6.60;;
34035;SDS011;63481;52.588;22.472;2023-03-14T02:45:44;12.70;;;6.90;;
34035;SDS011;63481;52.588;22.472;2023-03-14T02:46:40;16.20;;;8.40;;
34035;SDS011;63481;52.588;22.472;2023-03-14T02:47:34;13.30;;;6.90;;
34035;SDS011;63481;52.588;22.472;2023-03-14T02:48:39;12.70;;;6.90;;
34035;SDS011;63481;52.588;22.472;2023-03-14T02:49:37;13.90;;;7.20;;
34035;SDS011;63481;52.588;22.472;2023-03-14T02:50:30;13.60;;;7.40;;
34035;SDS011;63481;52.588;22.472;2023-03-14T02:51:26;14.50;;;7.20;;
34035;SDS011;63481;52.588;22.472;2023-03-14T02:52:21;14.30;;;7.30;;
34035;SDS011;63481;52.588;22.472;2023-03-14T02:53:14;14.60;;;7.50;;
34035;SDS011;63481;52.588;22.472;2023-03-14T02:54:11;13.30;;;7.00;;
34035;SDS011;63481;52.588;22.472;2023-03-14T02:55:04;13.00;;;7.00;;
34035;SDS011;63481;52.588;22.472;2023-03-14T02:55:58;14.00;;;7.90;;
34035;SDS011;63481;52.588;22.472;2023-03-14T02:56:51;12.20;;;7.30;;
34035;SDS011;63481;52.588;22.472;2023-03-14T02:57:44;13.00;;;7.00;;
34035;SDS011;63481;52.588;22.472;2023-03-14T02:58:37;15.10;;;7.50;;
34035;SDS011;63481;52.588;22.472;2023-03-14T02:59:43;14.00;;;7.10;;
34035;SDS011;63481;52.588;22.472;2023-03-14T03:00:41;13.50;;;7.40;;
34035;SDS011;63481;52.588;22.472;2023-03-14T03:01:34;14.90;;;7.10;;
34035;SDS011;63481;52.588;22.472;2023-03-14T03:02:27;13.40;;;7.20;;
34035;SDS011;63481;52.588;22.472;2023-03-14T03:03:20;15.70;;;7.40;;
34035;SDS011;63481;52.588;22.472;2023-03-14T03:04:14;14.60;;;7.30;;
34035;SDS011;63481;52.588;22.472;2023-03-14T03:05:07;12.90;;;7.30;;
34035;SDS011;63481;52.588;22.472;2023-03-14T03:05:59;13.60;;;7.30;;
34035;SDS011;63481;52.588;22.472;2023-03-14T03:06:53;16.00;;;7.30;;
34035;SDS011;63481;52.588;22.472;2023-03-14T03:07:46;10.50;;;6.50;;
34035;SDS011;63481;52.588;22.472;2023-03-14T03:08:39;15.20;;;7.60;;
34035;SDS011;63481;52.588;22.472;2023-03-14T03:09:33;12.70;;;7.10;;
34035;SDS011;63481;52.588;22.472;2023-03-14T03:10:27;14.90;;;7.10;;
34035;SDS011;63481;52.588;22.472;2023-03-14T03:11:21;14.90;;;7.00;;
34035;SDS011;63481;52.588;22.472;2023-03-14T03:12:14;12.40;;;6.50;;
34035;SDS011;63481;52.588;22.472;2023-03-14T03:13:08;13.90;;;7.30;;
34035;SDS011;63481;52.588;22.472;2023-03-14T03:14:01;14.60;;;6.80;;
34035;SDS011;63481;52.588;22.472;2023-03-14T03:14:54;12.90;;;6.60;;
34035;SDS011;63481;52.588;22.472;2023-03-14T03:15:48;12.90;;;7.20;;
34035;SDS011;63481;52.588;22.472;2023-03-14T03:16:40;12.90;;;6.90;;
34035;SDS011;63481;52.588;22.472;2023-03-14T03:17:33;14.60;;;7.00;;
34035;SDS011;63481;52.588;22.472;2023-03-14T03:18:26;12.30;;;6.60;;
34035;SDS011;63481;52.588;22.472;2023-03-14T03:19:22;13.30;;;7.40;;
34035;SDS011;63481;52.588;22.472;2023-03-14T03:20:16;12.10;;;7.00;;
34035;SDS011;63481;52.588;22.472;2023-03-14T03:21:09;12.50;;;6.80;;
34035;SDS011;63481;52.588;22.472;2023-03-14T03:22:03;12.50;;;6.90;;
34035;SDS011;63481;52.588;22.472;2023-03-14T03:22:56;12.50;;;6.60;;
34035;SDS011;63481;52.588;22.472;2023-03-14T03:23:51;12.70;;;6.60;;
34035;SDS011;63481;52.588;22.472;2023-03-14T03:24:44;12.10;;;6.10;;
34035;SDS011;63481;52.588;22.472;2023-03-14T03:25:37;13.10;;;6.80;;
34035;SDS011;63481;52.588;22.472;2023-03-14T03:26:31;12.50;;;6.20;;
34035;SDS011;63481;52.588;22.472;2023-03-14T03:27:24;12.60;;;6.30;;
34035;SDS011;63481;52.588;22.472;2023-03-14T03:28:18;17.20;;;6.30;;
34035;SDS011;63481;52.588;22.472;2023-03-14T03:29:12;12.40;;;5.80;;
34035;SDS011;63481;52.588;22.472;2023-03-14T03:30:06;10.30;;;6.00;;
34035;SDS011;63481;52.588;22.472;2023-03-14T03:31:05;10.50;;;5.70;;
34035;SDS011;63481;52.588;22.472;2023-03-14T03:31:59;10.90;;;6.20;;
34035;SDS011;63481;52.588;22.472;2023-03-14T03:32:52;12.60;;;6.30;;
34035;SDS011;63481;52.588;22.472;2023-03-14T03:33:45;12.30;;;6.20;;
34035;SDS011;63481;52.588;22.472;2023-03-14T03:34:38;12.00;;;6.50;;
34035;SDS011;63481;52.588;22.472;2023-03-14T03:35:32;11.60;;;6.50;;
34035;SDS011;63481;52.588;22.472;2023-03-14T03:36:27;13.50;;;6.30;;
34035;SDS011;63481;52.588;22.472;2023-03-14T03:37:20;12.00;;;6.50;;
34035;SDS011;63481;52.588;22.472;2023-03-14T03:38:12;12.00;;;6.00;;
34035;SDS011;63481;52.588;22.472;2023-03-14T03:39:05;13.00;;;6.10;;
34035;SDS011;63481;52.588;22.472;2023-03-14T03:39:59;12.50;;;6.20;;
34035;SDS011;63481;52.588;22.472;2023-03-14T03:40:52;12.00;;;5.90;;
34035;SDS011;63481;52.588;22.472;2023-03-14T03:41:45;11.30;;;5.90;;
34035;SDS011;63481;52.588;22.472;2023-03-14T03:42:38;13.60;;;6.50;;
34035;SDS011;63481;52.588;22.472;2023-03-14T03:43:33;13.30;;;6.40;;
34035;SDS011;63481;52.588;22.472;2023-03-14T03:44:27;13.00;;;6.40;;
34035;SDS011;63481;52.588;22.472;2023-03-14T03:45:20;12.20;;;6.50;;
34035;SDS011;63481;52.588;22.472;2023-03-14T03:46:17;13.10;;;6.50;;
34035;SDS011;63481;52.588;22.472;2023-03-14T03:47:11;13.30;;;6.30;;
34035;SDS011;63481;52.588;22.472;2023-03-14T03:48:04;14.30;;;6.30;;
34035;SDS011;63481;52.588;22.472;2023-03-14T03:48:58;11.70;;;5.90;;
34035;SDS011;63481;52.588;22.472;2023-03-14T03:49:52;14.00;;;6.20;;
34035;SDS011;63481;52.588;22.472;2023-03-14T03:50:46;15.10;;;7.70;;
34035;SDS011;63481;52.588;22.472;2023-03-14T03:51:41;11.30;;;6.30;;
34035;SDS011;63481;52.588;22.472;2023-03-14T03:52:34;13.40;;;6.00;;
34035;SDS011;63481;52.588;22.472;2023-03-14T03:53:27;17.00;;;7.50;;
34035;SDS011;63481;52.588;22.472;2023-03-14T03:54:20;12.40;;;6.90;;
34035;SDS011;63481;52.588;22.472;2023-03-14T03:55:12;11.00;;;6.10;;
34035;SDS011;63481;52.588;22.472;2023-03-14T03:56:05;15.10;;;6.30;;
34035;SDS011;63481;52.588;22.472;2023-03-14T03:56:59;12.30;;;6.10;;
34035;SDS011;63481;52.588;22.472;2023-03-14T03:57:53;11.60;;;6.30;;
34035;SDS011;63481;52.588;22.472;2023-03-14T03:58:46;11.90;;;6.00;;
34035;SDS011;63481;52.588;22.472;2023-03-14T03:59:38;12.90;;;6.00;;
34035;SDS011;63481;52.588;22.472;2023-03-14T04:00:33;12.30;;;6.10;;
34035;SDS011;63481;52.588;22.472;2023-03-14T04:01:26;14.90;;;6.20;;
34035;SDS011;63481;52.588;22.472;2023-03-14T04:02:19;10.70;;;6.10;;
34035;SDS011;63481;52.588;22.472;2023-03-14T04:03:12;12.40;;;5.90;;
34035;SDS011;63481;52.588;22.472;2023-03-14T04:04:04;10.80;;;6.20;;
34035;SDS011;63481;52.588;22.472;2023-03-14T04:04:57;11.30;;;5.50;;
34035;SDS011;63481;52.588;22.472;2023-03-14T04:06:03;12.50;;;5.80;;
34035;SDS011;63481;52.588;22.472;2023-03-14T04:07:03;10.30;;;5.50;;
34035;SDS011;63481;52.588;22.472;2023-03-14T04:07:57;9.80;;;5.20;;
34035;SDS011;63481;52.588;22.472;2023-03-14T04:08:53;14.80;;;6.70;;
34035;SDS011;63481;52.588;22.472;2023-03-14T04:10:06;11.30;;;5.80;;
34035;SDS011;63481;52.588;22.472;2023-03-14T04:11:03;14.80;;;5.90;;
34035;SDS011;63481;52.588;22.472;2023-03-14T04:12:16;11.60;;;5.80;;
34035;SDS011;63481;52.588;22.472;2023-03-14T04:13:28;9.50;;;5.10;;
34035;SDS011;63481;52.588;22.472;2023-03-14T04:14:21;11.60;;;5.10;;
34035;SDS011;63481;52.588;22.472;2023-03-14T04:15:21;11.40;;;5.70;;
34035;SDS011;63481;52.588;22.472;2023-03-14T04:16:18;11.70;;;6.10;;
34035;SDS011;63481;52.588;22.472;2023-03-14T04:17:13;13.00;;;5.40;;
34035;SDS011;63481;52.588;22.472;2023-03-14T04:18:06;9.90;;;5.30;;
34035;SDS011;63481;52.588;22.472;2023-03-14T04:18:59;14.00;;;5.90;;
34035;SDS011;63481;52.588;22.472;2023-03-14T04:19:53;13.10;;;5.80;;
34035;SDS011;63481;52.588;22.472;2023-03-14T04:20:54;11.00;;;5.60;;
34035;SDS011;63481;52.588;22.472;2023-03-14T04:21:51;10.70;;;6.00;;
34035;SDS011;63481;52.588;22.472;2023-03-14T04:22:45;10.80;;;5.70;;
34035;SDS011;63481;52.588;22.472;2023-03-14T04:23:38;16.90;;;6.00;;
34035;SDS011;63481;52.588;22.472;2023-03-14T04:24:30;10.40;;;5.50;;
34035;SDS011;63481;52.588;22.472;2023-03-14T04:25:23;10.40;;;5.50;;
34035;SDS011;63481;52.588;22.472;2023-03-14T04:26:20;11.00;;;5.80;;
34035;SDS011;63481;52.588;22.472;2023-03-14T04:27:13;12.30;;;5.60;;
34035;SDS011;63481;52.588;22.472;2023-03-14T04:28:08;10.50;;;5.50;;
34035;SDS011;63481;52.588;22.472;2023-03-14T04:29:01;11.70;;;5.50;;
34035;SDS011;63481;52.588;22.472;2023-03-14T04:29:54;10.90;;;5.70;;
34035;SDS011;63481;52.588;22.472;2023-03-14T04:30:58;13.90;;;5.70;;
34035;SDS011;63481;52.588;22.472;2023-03-14T04:32:01;9.60;;;5.20;;
34035;SDS011;63481;52.588;22.472;2023-03-14T04:32:54;13.90;;;5.90;;
34035;SDS011;63481;52.588;22.472;2023-03-14T04:33:49;10.70;;;5.30;;
34035;SDS011;63481;52.588;22.472;2023-03-14T04:34:49;11.00;;;5.90;;
34035;SDS011;63481;52.588;22.472;2023-03-14T04:35:45;12.00;;;5.70;;
34035;SDS011;63481;52.588;22.472;2023-03-14T04:36:40;10.40;;;5.40;;
34035;SDS011;63481;52.588;22.472;2023-03-14T04:37:37;11.60;;;5.40;;
34035;SDS011;63481;52.588;22.472;2023-03-14T04:38:30;9.90;;;5.30;;
34035;SDS011;63481;52.588;22.472;2023-03-14T04:39:23;9.50;;;5.00;;
34035;SDS011;63481;52.588;22.472;2023-03-14T04:40:22;11.60;;;6.00;;
34035;SDS011;63481;52.588;22.472;2023-03-14T04:41:17;9.70;;;5.40;;
34035;SDS011;63481;52.588;22.472;2023-03-14T04:42:09;10.40;;;5.30;;
34035;SDS011;63481;52.588;22.472;2023-03-14T04:43:03;11.90;;;5.10;;
34035;SDS011;63481;52.588;22.472;2023-03-14T04:43:56;12.80;;;6.00;;
34035;SDS011;63481;52.588;22.472;2023-03-14T04:44:49;10.60;;;6.20;;
34035;SDS011;63481;52.588;22.472;2023-03-14T04:45:42;10.90;;;6.20;;
34035;SDS011;63481;52.588;22.472;2023-03-14T04:46:36;11.20;;;6.20;;
34035;SDS011;63481;52.588;22.472;2023-03-14T04:47:31;13.00;;;6.20;;
34035;SDS011;63481;52.588;22.472;2023-03-14T04:48:27;10.40;;;5.40;;
34035;SDS011;63481;52.588;22.472;2023-03-14T04:49:20;12.00;;;5.70;;
34035;SDS011;63481;52.588;22.472;2023-03-14T04:50:13;10.40;;;5.80;;
34035;SDS011;63481;52.588;22.472;2023-03-14T04:51:06;12.60;;;5.50;;
34035;SDS011;63481;52.588;22.472;2023-03-14T04:52:00;9.60;;;5.30;;
34035;SDS011;63481;52.588;22.472;2023-03-14T04:52:53;11.00;;;5.70;;
34035;SDS011;63481;52.588;22.472;2023-03-14T04:53:46;13.10;;;5.90;;
34035;SDS011;63481;52.588;22.472;2023-03-14T04:54:40;11.20;;;5.60;;
34035;SDS011;63481;52.588;22.472;2023-03-14T04:55:32;11.20;;;5.80;;
34035;SDS011;63481;52.588;22.472;2023-03-14T04:56:27;11.70;;;6.10;;
34035;SDS011;63481;52.588;22.472;2023-03-14T04:57:20;10.70;;;5.10;;
34035;SDS011;63481;52.588;22.472;2023-03-14T04:58:13;10.80;;;5.20;;
34035;SDS011;63481;52.588;22.472;2023-03-14T04:59:06;12.90;;;5.60;;
34035;SDS011;63481;52.588;22.472;2023-03-14T05:00:02;10.70;;;5.60;;
34035;SDS011;63481;52.588;22.472;2023-03-14T05:01:21;11.10;;;5.40;;
34035;SDS011;63481;52.588;22.472;2023-03-14T05:02:33;10.90;;;5.80;;
34035;SDS011;63481;52.588;22.472;2023-03-14T05:03:56;10.50;;;5.60;;
34035;SDS011;63481;52.588;22.472;2023-03-14T05:05:05;10.70;;;5.50;;
34035;SDS011;63481;52.588;22.472;2023-03-14T05:06:25;11.40;;;5.60;;
34035;SDS011;63481;52.588;22.472;2023-03-14T05:07:35;11.90;;;5.70;;
34035;SDS011;63481;52.588;22.472;2023-03-14T05:08:48;11.20;;;5.30;;
34035;SDS011;63481;52.588;22.472;2023-03-14T05:10:04;14.50;;;5.90;;
34035;SDS011;63481;52.588;22.472;2023-03-14T05:11:19;10.30;;;5.80;;
34035;SDS011;63481;52.588;22.472;2023-03-14T05:12:44;11.50;;;5.90;;
34035;SDS011;63481;52.588;22.472;2023-03-14T05:14:06;9.80;;;5.20;;
34035;SDS011;63481;52.588;22.472;2023-03-14T05:15:09;11.70;;;5.50;;
34035;SDS011;63481;52.588;22.472;2023-03-14T05:16:28;10.30;;;5.50;;
34035;SDS011;63481;52.588;22.472;2023-03-14T05:17:36;11.00;;;6.10;;
34035;SDS011;63481;52.588;22.472;2023-03-14T05:18:47;11.50;;;5.80;;
34035;SDS011;63481;52.588;22.472;2023-03-14T05:20:00;12.10;;;5.50;;
34035;SDS011;63481;52.588;22.472;2023-03-14T05:20:53;12.50;;;5.50;;
34035;SDS011;63481;52.588;22.472;2023-03-14T05:22:13;9.50;;;4.80;;
34035;SDS011;63481;52.588;22.472;2023-03-14T05:23:24;13.30;;;5.60;;
34035;SDS011;63481;52.588;22.472;2023-03-14T05:24:37;10.90;;;6.00;;
34035;SDS011;63481;52.588;22.472;2023-03-14T05:25:42;11.80;;;6.00;;
34035;SDS011;63481;52.588;22.472;2023-03-14T05:26:55;10.80;;;5.50;;
34035;SDS011;63481;52.588;22.472;2023-03-14T05:27:54;10.70;;;5.50;;
34035;SDS011;63481;52.588;22.472;2023-03-14T05:28:50;11.50;;;5.40;;
34035;SDS011;63481;52.588;22.472;2023-03-14T05:29:51;11.70;;;5.30;;
34035;SDS011;63481;52.588;22.472;2023-03-14T05:31:10;12.40;;;6.20;;
34035;SDS011;63481;52.588;22.472;2023-03-14T05:32:14;10.70;;;5.60;;
34035;SDS011;63481;52.588;22.472;2023-03-14T05:33:18;11.70;;;5.70;;
34035;SDS011;63481;52.588;22.472;2023-03-14T05:34:28;9.80;;;5.50;;
34035;SDS011;63481;52.588;22.472;2023-03-14T05:35:46;11.50;;;5.30;;
34035;SDS011;63481;52.588;22.472;2023-03-14T05:37:14;13.90;;;5.50;;
34035;SDS011;63481;52.588;22.472;2023-03-14T05:38:36;10.30;;;5.40;;
34035;SDS011;63481;52.588;22.472;2023-03-14T05:39:55;11.80;;;5.40;;
34035;SDS011;63481;52.588;22.472;2023-03-14T05:41:08;10.80;;;5.50;;
34035;SDS011;63481;52.588;22.472;2023-03-14T05:42:20;12.70;;;5.60;;
34035;SDS011;63481;52.588;22.472;2023-03-14T05:43:32;11.90;;;5.70;;